KRWL

Rawlins Municipal / Harvey Field Airport

Rawlins, Wyoming, USA
METAR KRWL 232253Z AUTO 25022G28KT 10SM CLR M04/M09 A3023 RMK AO2 PK WND 25033/2214 SNB17E27 SLP281 P0000 T10391089
Observed Flight Rules
Jan-23 @ 22:53 UTC (39 minutes ago) Visual Flight Rules
Wind Visibility Clouds
250° at 22 knots
 Gusting to 28 knots
10 miles
  • Clear skies
Temperatures Readings Precipitation
Current -4°C / 25°F
Dewpoint -9°C / 16°F
Humidity 69%
Altimeter 30.23" Hg
Pressure 1028.1 hPa
Elevation 2077
Current Rain 0.005
METAR KRWL 232253Z AUTO 25022G28KT 10SM CLR M04/M09 A3023 RMK AO2 PK WND 25033/2214 SNB17E27 SLP281 P0000 T10391089
Observed Flight Rules
Jan-23 @ 22:53 UTC
(39 minutes ago)
VFR
Wind Visibility
250° at 22 knots
 Gusting to 28 knots
10 miles
Clouds
  • Clear skies
Temperature Dewpoint
-4°C / 25°F -9°C / 16°F
Humidity Altimeter Pressure
69% 30.23" Hg 1028.1 hPa
Current Rain
0.005